sensor_id;sensor_type;location;lat;lon;timestamp;P1;durP1;ratioP1;P2;durP2;ratioP2
75071;SDS011;63651;55.728;38.022;2024-01-15T00:02:51;3.70;;;2.50;;
75071;SDS011;63651;55.728;38.022;2024-01-15T00:07:53;4.68;;;3.17;;
75071;SDS011;63651;55.728;38.022;2024-01-15T00:12:55;3.83;;;2.80;;
75071;SDS011;63651;55.728;38.022;2024-01-15T00:17:58;3.58;;;3.08;;
75071;SDS011;63651;55.728;38.022;2024-01-15T00:23:01;5.40;;;3.17;;
75071;SDS011;63651;55.728;38.022;2024-01-15T00:28:04;3.67;;;2.55;;
75071;SDS011;63651;55.728;38.022;2024-01-15T00:33:07;3.97;;;2.92;;
75071;SDS011;63651;55.728;38.022;2024-01-15T00:38:09;4.93;;;3.55;;
75071;SDS011;63651;55.728;38.022;2024-01-15T00:43:11;3.85;;;2.97;;
75071;SDS011;63651;55.728;38.022;2024-01-15T00:48:13;4.38;;;2.90;;
75071;SDS011;63651;55.728;38.022;2024-01-15T00:53:16;4.57;;;3.00;;
75071;SDS011;63651;55.728;38.022;2024-01-15T00:58:19;4.65;;;3.08;;
75071;SDS011;63651;55.728;38.022;2024-01-15T01:03:22;3.88;;;2.92;;
75071;SDS011;63651;55.728;38.022;2024-01-15T01:08:24;5.30;;;2.90;;
75071;SDS011;63651;55.728;38.022;2024-01-15T01:13:27;5.93;;;3.30;;
75071;SDS011;63651;55.728;38.022;2024-01-15T01:18:30;5.15;;;2.97;;
75071;SDS011;63651;55.728;38.022;2024-01-15T01:23:31;4.20;;;3.08;;
75071;SDS011;63651;55.728;38.022;2024-01-15T01:28:34;4.30;;;3.10;;
75071;SDS011;63651;55.728;38.022;2024-01-15T01:33:38;4.43;;;3.20;;
75071;SDS011;63651;55.728;38.022;2024-01-15T01:38:41;4.68;;;3.35;;
75071;SDS011;63651;55.728;38.022;2024-01-15T01:43:44;5.40;;;3.22;;
75071;SDS011;63651;55.728;38.022;2024-01-15T01:48:47;4.03;;;2.58;;
75071;SDS011;63651;55.728;38.022;2024-01-15T01:53:48;3.72;;;2.83;;
75071;SDS011;63651;55.728;38.022;2024-01-15T01:58:52;4.57;;;3.10;;
75071;SDS011;63651;55.728;38.022;2024-01-15T02:03:54;4.80;;;3.28;;
75071;SDS011;63651;55.728;38.022;2024-01-15T02:08:57;4.00;;;3.10;;
75071;SDS011;63651;55.728;38.022;2024-01-15T02:14:01;3.72;;;2.78;;
75071;SDS011;63651;55.728;38.022;2024-01-15T02:19:03;4.43;;;2.92;;
75071;SDS011;63651;55.728;38.022;2024-01-15T02:24:06;4.43;;;3.33;;
75071;SDS011;63651;55.728;38.022;2024-01-15T02:29:08;5.07;;;3.22;;
75071;SDS011;63651;55.728;38.022;2024-01-15T02:34:11;4.00;;;2.90;;
75071;SDS011;63651;55.728;38.022;2024-01-15T02:39:13;5.22;;;3.40;;
75071;SDS011;63651;55.728;38.022;2024-01-15T02:44:16;4.85;;;3.58;;
75071;SDS011;63651;55.728;38.022;2024-01-15T02:49:19;4.00;;;3.13;;
75071;SDS011;63651;55.728;38.022;2024-01-15T02:54:22;4.15;;;3.10;;
75071;SDS011;63651;55.728;38.022;2024-01-15T02:59:24;3.97;;;3.13;;
75071;SDS011;63651;55.728;38.022;2024-01-15T03:04:27;4.28;;;3.33;;
75071;SDS011;63651;55.728;38.022;2024-01-15T03:09:29;4.68;;;3.13;;
75071;SDS011;63651;55.728;38.022;2024-01-15T03:14:31;6.30;;;3.78;;
75071;SDS011;63651;55.728;38.022;2024-01-15T03:19:34;4.10;;;3.10;;
75071;SDS011;63651;55.728;38.022;2024-01-15T03:24:35;3.97;;;3.20;;
75071;SDS011;63651;55.728;38.022;2024-01-15T03:29:39;3.50;;;2.85;;
75071;SDS011;63651;55.728;38.022;2024-01-15T03:34:41;4.20;;;2.92;;
75071;SDS011;63651;55.728;38.022;2024-01-15T03:39:43;4.13;;;2.95;;
75071;SDS011;63651;55.728;38.022;2024-01-15T03:44:45;4.55;;;3.45;;
75071;SDS011;63651;55.728;38.022;2024-01-15T03:49:47;4.30;;;3.35;;
75071;SDS011;63651;55.728;38.022;2024-01-15T03:54:49;4.30;;;3.17;;
75071;SDS011;63651;55.728;38.022;2024-01-15T03:59:52;4.55;;;3.33;;
75071;SDS011;63651;55.728;38.022;2024-01-15T04:04:54;5.15;;;3.40;;
75071;SDS011;63651;55.728;38.022;2024-01-15T04:09:57;4.38;;;2.72;;
75071;SDS011;63651;55.728;38.022;2024-01-15T04:14:59;4.28;;;3.00;;
75071;SDS011;63651;55.728;38.022;2024-01-15T04:20:01;5.78;;;3.65;;
75071;SDS011;63651;55.728;38.022;2024-01-15T04:25:03;4.93;;;3.30;;
75071;SDS011;63651;55.728;38.022;2024-01-15T04:30:06;4.45;;;3.28;;
75071;SDS011;63651;55.728;38.022;2024-01-15T04:35:10;4.45;;;3.65;;
75071;SDS011;63651;55.728;38.022;2024-01-15T04:40:14;5.10;;;3.72;;
75071;SDS011;63651;55.728;38.022;2024-01-15T04:45:16;7.03;;;3.50;;
75071;SDS011;63651;55.728;38.022;2024-01-15T04:50:19;7.55;;;3.97;;
75071;SDS011;63651;55.728;38.022;2024-01-15T04:55:22;5.50;;;4.13;;
75071;SDS011;63651;55.728;38.022;2024-01-15T05:00:24;13.45;;;9.90;;
75071;SDS011;63651;55.728;38.022;2024-01-15T05:05:27;12.25;;;8.07;;
75071;SDS011;63651;55.728;38.022;2024-01-15T05:10:29;13.25;;;5.63;;
75071;SDS011;63651;55.728;38.022;2024-01-15T05:15:31;7.97;;;4.55;;
75071;SDS011;63651;55.728;38.022;2024-01-15T05:20:33;6.30;;;4.55;;
75071;SDS011;63651;55.728;38.022;2024-01-15T05:25:36;7.47;;;4.43;;
75071;SDS011;63651;55.728;38.022;2024-01-15T05:30:38;8.75;;;3.65;;
75071;SDS011;63651;55.728;38.022;2024-01-15T05:35:41;6.20;;;4.22;;
75071;SDS011;63651;55.728;38.022;2024-01-15T05:40:43;12.55;;;8.85;;
75071;SDS011;63651;55.728;38.022;2024-01-15T05:45:45;14.93;;;3.22;;
75071;SDS011;63651;55.728;38.022;2024-01-15T05:50:47;8.07;;;4.70;;
75071;SDS011;63651;55.728;38.022;2024-01-15T05:55:50;8.93;;;5.07;;
75071;SDS011;63651;55.728;38.022;2024-01-15T06:00:51;7.25;;;5.10;;
75071;SDS011;63651;55.728;38.022;2024-01-15T06:05:53;10.70;;;6.32;;
75071;SDS011;63651;55.728;38.022;2024-01-15T06:10:56;8.35;;;5.30;;
75071;SDS011;63651;55.728;38.022;2024-01-15T06:15:58;7.82;;;5.13;;
75071;SDS011;63651;55.728;38.022;2024-01-15T06:20:59;7.68;;;5.65;;
75071;SDS011;63651;55.728;38.022;2024-01-15T06:26:02;8.50;;;5.97;;
75071;SDS011;63651;55.728;38.022;2024-01-15T06:31:08;8.85;;;5.60;;
75071;SDS011;63651;55.728;38.022;2024-01-15T06:36:11;8.88;;;6.03;;
75071;SDS011;63651;55.728;38.022;2024-01-15T06:41:13;6.97;;;5.45;;
75071;SDS011;63651;55.728;38.022;2024-01-15T06:46:21;8.07;;;5.75;;
75071;SDS011;63651;55.728;38.022;2024-01-15T06:51:24;10.45;;;6.72;;
75071;SDS011;63651;55.728;38.022;2024-01-15T06:56:26;11.65;;;6.45;;
75071;SDS011;63651;55.728;38.022;2024-01-15T07:01:29;10.18;;;6.47;;
75071;SDS011;63651;55.728;38.022;2024-01-15T07:06:31;11.55;;;7.10;;
75071;SDS011;63651;55.728;38.022;2024-01-15T07:11:33;11.15;;;6.63;;
75071;SDS011;63651;55.728;38.022;2024-01-15T07:16:39;13.23;;;6.55;;
75071;SDS011;63651;55.728;38.022;2024-01-15T07:21:42;8.65;;;5.55;;
75071;SDS011;63651;55.728;38.022;2024-01-15T07:26:45;9.40;;;6.20;;
75071;SDS011;63651;55.728;38.022;2024-01-15T07:31:48;11.43;;;8.27;;
75071;SDS011;63651;55.728;38.022;2024-01-15T07:36:52;15.45;;;9.88;;
75071;SDS011;63651;55.728;38.022;2024-01-15T07:41:54;15.30;;;11.55;;
75071;SDS011;63651;55.728;38.022;2024-01-15T07:46:56;16.80;;;12.63;;
75071;SDS011;63651;55.728;38.022;2024-01-15T07:51:57;16.17;;;10.60;;
75071;SDS011;63651;55.728;38.022;2024-01-15T07:57:01;17.20;;;10.57;;
75071;SDS011;63651;55.728;38.022;2024-01-15T08:02:06;16.65;;;10.07;;
75071;SDS011;63651;55.728;38.022;2024-01-15T08:07:09;14.73;;;11.05;;
75071;SDS011;63651;55.728;38.022;2024-01-15T08:12:15;14.00;;;10.57;;
75071;SDS011;63651;55.728;38.022;2024-01-15T08:17:17;14.52;;;10.18;;
75071;SDS011;63651;55.728;38.022;2024-01-15T08:22:20;12.57;;;9.18;;
75071;SDS011;63651;55.728;38.022;2024-01-15T08:27:23;12.45;;;9.10;;
75071;SDS011;63651;55.728;38.022;2024-01-15T08:32:24;13.30;;;9.07;;
75071;SDS011;63651;55.728;38.022;2024-01-15T08:37:28;12.80;;;8.30;;
75071;SDS011;63651;55.728;38.022;2024-01-15T08:42:31;10.68;;;8.05;;
75071;SDS011;63651;55.728;38.022;2024-01-15T08:47:35;10.65;;;8.38;;
75071;SDS011;63651;55.728;38.022;2024-01-15T08:52:37;11.10;;;6.57;;
75071;SDS011;63651;55.728;38.022;2024-01-15T08:57:40;10.30;;;7.93;;
75071;SDS011;63651;55.728;38.022;2024-01-15T09:02:42;9.98;;;7.28;;
75071;SDS011;63651;55.728;38.022;2024-01-15T09:07:45;9.57;;;7.25;;
75071;SDS011;63651;55.728;38.022;2024-01-15T09:12:49;9.30;;;6.85;;
75071;SDS011;63651;55.728;38.022;2024-01-15T09:17:51;10.13;;;6.70;;
75071;SDS011;63651;55.728;38.022;2024-01-15T09:22:52;10.48;;;6.82;;
75071;SDS011;63651;55.728;38.022;2024-01-15T09:27:55;9.65;;;6.45;;
75071;SDS011;63651;55.728;38.022;2024-01-15T09:32:57;10.77;;;7.05;;
75071;SDS011;63651;55.728;38.022;2024-01-15T09:37:59;9.45;;;6.82;;
75071;SDS011;63651;55.728;38.022;2024-01-15T09:43:03;9.10;;;6.28;;
75071;SDS011;63651;55.728;38.022;2024-01-15T09:48:09;7.90;;;5.45;;
75071;SDS011;63651;55.728;38.022;2024-01-15T09:53:13;7.15;;;5.82;;
75071;SDS011;63651;55.728;38.022;2024-01-15T09:58:18;9.20;;;6.95;;
75071;SDS011;63651;55.728;38.022;2024-01-15T10:03:20;9.43;;;6.35;;
75071;SDS011;63651;55.728;38.022;2024-01-15T10:08:23;8.00;;;5.93;;
75071;SDS011;63651;55.728;38.022;2024-01-15T10:13:26;7.55;;;5.38;;
75071;SDS011;63651;55.728;38.022;2024-01-15T10:18:28;8.05;;;5.90;;
75071;SDS011;63651;55.728;38.022;2024-01-15T10:23:34;8.63;;;6.03;;
75071;SDS011;63651;55.728;38.022;2024-01-15T10:28:37;7.57;;;5.82;;
75071;SDS011;63651;55.728;38.022;2024-01-15T10:33:39;6.57;;;4.95;;
75071;SDS011;63651;55.728;38.022;2024-01-15T10:38:45;8.68;;;5.63;;
75071;SDS011;63651;55.728;38.022;2024-01-15T10:43:48;8.18;;;6.05;;
75071;SDS011;63651;55.728;38.022;2024-01-15T10:48:51;8.25;;;5.78;;
75071;SDS011;63651;55.728;38.022;2024-01-15T10:53:53;7.45;;;4.93;;
75071;SDS011;63651;55.728;38.022;2024-01-15T10:58:57;7.82;;;5.47;;
75071;SDS011;63651;55.728;38.022;2024-01-15T11:04:01;8.77;;;5.72;;
75071;SDS011;63651;55.728;38.022;2024-01-15T11:09:03;7.03;;;5.32;;
75071;SDS011;63651;55.728;38.022;2024-01-15T11:14:06;6.47;;;4.72;;
75071;SDS011;63651;55.728;38.022;2024-01-15T11:19:08;7.47;;;5.60;;
75071;SDS011;63651;55.728;38.022;2024-01-15T11:30:03;7.28;;;4.70;;
75071;SDS011;63651;55.728;38.022;2024-01-15T11:35:06;6.45;;;4.65;;
75071;SDS011;63651;55.728;38.022;2024-01-15T11:40:10;5.47;;;4.18;;
75071;SDS011;63651;55.728;38.022;2024-01-15T11:45:13;6.45;;;5.00;;
75071;SDS011;63651;55.728;38.022;2024-01-15T11:50:21;5.78;;;4.70;;
75071;SDS011;63651;55.728;38.022;2024-01-15T11:55:34;7.90;;;4.95;;
75071;SDS011;63651;55.728;38.022;2024-01-15T12:00:42;6.22;;;4.60;;
75071;SDS011;63651;55.728;38.022;2024-01-15T12:05:46;6.90;;;4.75;;
75071;SDS011;63651;55.728;38.022;2024-01-15T12:10:49;7.90;;;5.15;;
75071;SDS011;63651;55.728;38.022;2024-01-15T12:15:51;6.43;;;4.35;;
75071;SDS011;63651;55.728;38.022;2024-01-15T12:20:55;6.38;;;4.20;;
75071;SDS011;63651;55.728;38.022;2024-01-15T12:25:59;4.97;;;3.80;;
75071;SDS011;63651;55.728;38.022;2024-01-15T12:31:01;6.47;;;4.05;;
75071;SDS011;63651;55.728;38.022;2024-01-15T12:36:06;5.93;;;4.13;;
75071;SDS011;63651;55.728;38.022;2024-01-15T12:41:09;6.85;;;3.60;;
75071;SDS011;63651;55.728;38.022;2024-01-15T12:46:11;5.22;;;3.33;;
75071;SDS011;63651;55.728;38.022;2024-01-15T12:51:15;4.88;;;3.58;;
75071;SDS011;63651;55.728;38.022;2024-01-15T12:56:18;5.80;;;3.97;;
75071;SDS011;63651;55.728;38.022;2024-01-15T13:01:20;8.77;;;3.92;;
75071;SDS011;63651;55.728;38.022;2024-01-15T13:06:23;6.32;;;4.57;;
75071;SDS011;63651;55.728;38.022;2024-01-15T13:11:25;5.97;;;4.60;;
75071;SDS011;63651;55.728;38.022;2024-01-15T13:16:28;5.88;;;3.95;;
75071;SDS011;63651;55.728;38.022;2024-01-15T13:21:30;7.60;;;4.10;;
75071;SDS011;63651;55.728;38.022;2024-01-15T13:26:33;6.85;;;4.10;;
75071;SDS011;63651;55.728;38.022;2024-01-15T13:31:35;4.30;;;3.80;;
75071;SDS011;63651;55.728;38.022;2024-01-15T13:36:36;7.35;;;5.43;;
75071;SDS011;63651;55.728;38.022;2024-01-15T13:41:40;7.32;;;5.38;;
75071;SDS011;63651;55.728;38.022;2024-01-15T13:46:42;7.88;;;5.40;;
75071;SDS011;63651;55.728;38.022;2024-01-15T13:51:45;6.28;;;4.57;;
75071;SDS011;63651;55.728;38.022;2024-01-15T13:56:47;6.32;;;4.75;;
75071;SDS011;63651;55.728;38.022;2024-01-15T14:01:50;5.55;;;4.38;;
75071;SDS011;63651;55.728;38.022;2024-01-15T14:06:52;4.97;;;4.13;;
75071;SDS011;63651;55.728;38.022;2024-01-15T14:11:55;6.57;;;4.50;;
75071;SDS011;63651;55.728;38.022;2024-01-15T14:16:57;4.45;;;3.42;;
75071;SDS011;63651;55.728;38.022;2024-01-15T14:21:59;5.15;;;4.32;;
75071;SDS011;63651;55.728;38.022;2024-01-15T14:27:02;5.30;;;4.10;;
75071;SDS011;63651;55.728;38.022;2024-01-15T14:32:06;4.57;;;3.72;;
75071;SDS011;63651;55.728;38.022;2024-01-15T14:37:08;4.63;;;3.22;;
75071;SDS011;63651;55.728;38.022;2024-01-15T14:42:10;5.65;;;4.30;;
75071;SDS011;63651;55.728;38.022;2024-01-15T14:47:12;6.18;;;4.53;;
75071;SDS011;63651;55.728;38.022;2024-01-15T14:52:15;4.97;;;3.88;;
75071;SDS011;63651;55.728;38.022;2024-01-15T14:57:16;5.85;;;3.95;;
75071;SDS011;63651;55.728;38.022;2024-01-15T15:02:19;5.03;;;4.00;;
75071;SDS011;63651;55.728;38.022;2024-01-15T15:07:22;3.85;;;3.38;;
75071;SDS011;63651;55.728;38.022;2024-01-15T15:12:24;4.93;;;3.20;;
75071;SDS011;63651;55.728;38.022;2024-01-15T15:17:28;5.03;;;3.30;;
75071;SDS011;63651;55.728;38.022;2024-01-15T15:22:30;6.63;;;3.10;;
75071;SDS011;63651;55.728;38.022;2024-01-15T15:27:32;5.25;;;3.15;;
75071;SDS011;63651;55.728;38.022;2024-01-15T15:32:35;7.07;;;3.13;;
75071;SDS011;63651;55.728;38.022;2024-01-15T15:37:38;4.68;;;3.15;;
75071;SDS011;63651;55.728;38.022;2024-01-15T15:42:41;4.30;;;3.08;;
75071;SDS011;63651;55.728;38.022;2024-01-15T15:47:43;3.42;;;2.95;;
75071;SDS011;63651;55.728;38.022;2024-01-15T15:52:46;3.95;;;3.25;;
75071;SDS011;63651;55.728;38.022;2024-01-15T15:57:49;6.32;;;3.20;;
75071;SDS011;63651;55.728;38.022;2024-01-15T16:02:52;3.67;;;2.90;;
75071;SDS011;63651;55.728;38.022;2024-01-15T16:07:54;4.30;;;3.35;;
75071;SDS011;63651;55.728;38.022;2024-01-15T16:12:55;4.25;;;3.25;;
75071;SDS011;63651;55.728;38.022;2024-01-15T16:17:58;3.85;;;3.20;;
75071;SDS011;63651;55.728;38.022;2024-01-15T16:23:00;4.75;;;3.90;;
75071;SDS011;63651;55.728;38.022;2024-01-15T16:28:02;7.50;;;3.70;;
75071;SDS011;63651;55.728;38.022;2024-01-15T16:33:06;10.73;;;4.03;;
75071;SDS011;63651;55.728;38.022;2024-01-15T16:38:08;12.43;;;5.18;;
75071;SDS011;63651;55.728;38.022;2024-01-15T16:43:11;11.98;;;5.70;;
75071;SDS011;63651;55.728;38.022;2024-01-15T16:48:13;14.82;;;6.13;;
75071;SDS011;63651;55.728;38.022;2024-01-15T16:53:15;16.85;;;5.53;;
75071;SDS011;63651;55.728;38.022;2024-01-15T16:58:18;16.48;;;5.97;;
75071;SDS011;63651;55.728;38.022;2024-01-15T17:03:21;11.27;;;5.28;;
75071;SDS011;63651;55.728;38.022;2024-01-15T17:08:24;12.15;;;6.00;;
75071;SDS011;63651;55.728;38.022;2024-01-15T17:13:25;13.75;;;5.78;;
75071;SDS011;63651;55.728;38.022;2024-01-15T17:18:28;12.60;;;5.45;;
75071;SDS011;63651;55.728;38.022;2024-01-15T17:23:30;11.00;;;5.47;;
75071;SDS011;63651;55.728;38.022;2024-01-15T17:28:32;11.15;;;5.80;;
75071;SDS011;63651;55.728;38.022;2024-01-15T17:33:35;10.38;;;5.22;;
75071;SDS011;63651;55.728;38.022;2024-01-15T17:38:37;10.40;;;5.43;;
75071;SDS011;63651;55.728;38.022;2024-01-15T17:43:39;14.18;;;5.78;;
75071;SDS011;63651;55.728;38.022;2024-01-15T17:48:42;11.57;;;5.00;;
75071;SDS011;63651;55.728;38.022;2024-01-15T17:53:45;11.38;;;5.00;;
75071;SDS011;63651;55.728;38.022;2024-01-15T17:58:47;7.90;;;5.03;;
75071;SDS011;63651;55.728;38.022;2024-01-15T18:03:48;10.35;;;5.00;;
75071;SDS011;63651;55.728;38.022;2024-01-15T18:08:51;9.35;;;4.90;;
75071;SDS011;63651;55.728;38.022;2024-01-15T18:13:52;9.30;;;5.07;;
75071;SDS011;63651;55.728;38.022;2024-01-15T18:18:54;8.95;;;5.15;;
75071;SDS011;63651;55.728;38.022;2024-01-15T18:23:57;10.35;;;5.40;;
75071;SDS011;63651;55.728;38.022;2024-01-15T18:28:59;10.75;;;4.40;;
75071;SDS011;63651;55.728;38.022;2024-01-15T18:34:02;9.73;;;4.68;;
75071;SDS011;63651;55.728;38.022;2024-01-15T18:39:03;8.95;;;3.78;;
75071;SDS011;63651;55.728;38.022;2024-01-15T18:44:08;6.78;;;4.07;;
75071;SDS011;63651;55.728;38.022;2024-01-15T18:49:10;6.75;;;4.03;;
75071;SDS011;63651;55.728;38.022;2024-01-15T18:54:12;8.80;;;4.90;;
75071;SDS011;63651;55.728;38.022;2024-01-15T18:59:16;6.20;;;4.50;;
75071;SDS011;63651;55.728;38.022;2024-01-15T19:04:17;7.28;;;4.70;;
75071;SDS011;63651;55.728;38.022;2024-01-15T19:09:19;8.50;;;4.05;;
75071;SDS011;63651;55.728;38.022;2024-01-15T19:14:21;7.07;;;3.92;;
75071;SDS011;63651;55.728;38.022;2024-01-15T19:19:24;8.00;;;4.38;;
75071;SDS011;63651;55.728;38.022;2024-01-15T19:24:26;6.15;;;3.85;;
75071;SDS011;63651;55.728;38.022;2024-01-15T19:29:28;7.28;;;4.40;;
75071;SDS011;63651;55.728;38.022;2024-01-15T19:34:31;7.38;;;4.25;;
75071;SDS011;63651;55.728;38.022;2024-01-15T19:39:32;5.70;;;3.80;;
75071;SDS011;63651;55.728;38.022;2024-01-15T19:44:35;6.35;;;5.30;;
75071;SDS011;63651;55.728;38.022;2024-01-15T19:49:37;5.80;;;3.70;;
75071;SDS011;63651;55.728;38.022;2024-01-15T19:54:44;5.95;;;3.97;;
75071;SDS011;63651;55.728;38.022;2024-01-15T19:59:47;6.60;;;3.78;;
75071;SDS011;63651;55.728;38.022;2024-01-15T20:04:54;7.60;;;3.90;;
75071;SDS011;63651;55.728;38.022;2024-01-15T20:09:58;5.53;;;3.75;;
75071;SDS011;63651;55.728;38.022;2024-01-15T20:15:00;4.93;;;3.63;;
75071;SDS011;63651;55.728;38.022;2024-01-15T20:20:02;4.40;;;3.25;;
75071;SDS011;63651;55.728;38.022;2024-01-15T20:25:06;6.30;;;3.65;;
75071;SDS011;63651;55.728;38.022;2024-01-15T20:30:10;4.57;;;3.20;;
75071;SDS011;63651;55.728;38.022;2024-01-15T20:35:12;3.88;;;3.00;;
75071;SDS011;63651;55.728;38.022;2024-01-15T20:40:15;4.72;;;2.90;;
75071;SDS011;63651;55.728;38.022;2024-01-15T20:45:17;4.85;;;3.60;;
75071;SDS011;63651;55.728;38.022;2024-01-15T20:50:19;4.60;;;3.40;;
75071;SDS011;63651;55.728;38.022;2024-01-15T20:55:21;4.55;;;2.70;;
75071;SDS011;63651;55.728;38.022;2024-01-15T21:00:24;4.68;;;3.28;;
75071;SDS011;63651;55.728;38.022;2024-01-15T21:05:25;5.47;;;3.42;;
75071;SDS011;63651;55.728;38.022;2024-01-15T21:10:27;5.13;;;3.25;;
75071;SDS011;63651;55.728;38.022;2024-01-15T21:15:29;4.35;;;2.90;;
75071;SDS011;63651;55.728;38.022;2024-01-15T21:20:32;4.45;;;3.30;;
75071;SDS011;63651;55.728;38.022;2024-01-15T21:25:38;4.85;;;3.50;;
75071;SDS011;63651;55.728;38.022;2024-01-15T21:30:41;4.82;;;3.42;;
75071;SDS011;63651;55.728;38.022;2024-01-15T21:35:44;5.38;;;3.22;;
75071;SDS011;63651;55.728;38.022;2024-01-15T21:40:46;3.83;;;2.78;;
75071;SDS011;63651;55.728;38.022;2024-01-15T21:45:49;3.72;;;3.17;;
75071;SDS011;63651;55.728;38.022;2024-01-15T21:50:51;3.72;;;2.50;;
75071;SDS011;63651;55.728;38.022;2024-01-15T21:55:55;4.03;;;3.22;;
75071;SDS011;63651;55.728;38.022;2024-01-15T22:00:57;4.50;;;3.30;;
75071;SDS011;63651;55.728;38.022;2024-01-15T22:06:00;4.07;;;2.97;;
75071;SDS011;63651;55.728;38.022;2024-01-15T22:11:04;4.13;;;2.97;;
75071;SDS011;63651;55.728;38.022;2024-01-15T22:16:07;3.72;;;2.95;;
75071;SDS011;63651;55.728;38.022;2024-01-15T22:21:10;3.70;;;2.78;;
75071;SDS011;63651;55.728;38.022;2024-01-15T22:26:12;4.30;;;2.83;;
75071;SDS011;63651;55.728;38.022;2024-01-15T22:31:14;3.45;;;2.95;;
75071;SDS011;63651;55.728;38.022;2024-01-15T22:36:17;6.57;;;2.95;;
75071;SDS011;63651;55.728;38.022;2024-01-15T22:41:19;4.47;;;3.05;;
75071;SDS011;63651;55.728;38.022;2024-01-15T22:46:22;3.58;;;2.45;;
75071;SDS011;63651;55.728;38.022;2024-01-15T22:51:25;2.90;;;2.60;;
75071;SDS011;63651;55.728;38.022;2024-01-15T22:56:27;4.20;;;2.72;;
75071;SDS011;63651;55.728;38.022;2024-01-15T23:01:30;3.58;;;2.65;;
75071;SDS011;63651;55.728;38.022;2024-01-15T23:06:33;3.30;;;2.40;;
75071;SDS011;63651;55.728;38.022;2024-01-15T23:11:35;3.40;;;2.67;;
75071;SDS011;63651;55.728;38.022;2024-01-15T23:16:37;3.45;;;2.45;;
75071;SDS011;63651;55.728;38.022;2024-01-15T23:21:41;3.72;;;2.50;;
75071;SDS011;63651;55.728;38.022;2024-01-15T23:26:44;4.43;;;2.47;;
75071;SDS011;63651;55.728;38.022;2024-01-15T23:31:47;3.65;;;2.90;;
75071;SDS011;63651;55.728;38.022;2024-01-15T23:36:50;3.08;;;2.40;;
75071;SDS011;63651;55.728;38.022;2024-01-15T23:41:53;3.47;;;2.58;;
75071;SDS011;63651;55.728;38.022;2024-01-15T23:46:55;3.15;;;2.60;;
75071;SDS011;63651;55.728;38.022;2024-01-15T23:51:57;3.55;;;2.80;;
75071;SDS011;63651;55.728;38.022;2024-01-15T23:57:00;3.78;;;2.15;;
